createdAt,value
2023-05-12T00:01:16.534Z,93757.41
2023-05-12T00:03:43.621Z,93749.94
2023-05-12T00:06:10.551Z,93755.91
2023-05-12T00:08:37.324Z,93760.44
2023-05-12T00:11:04.238Z,93754.44
2023-05-12T00:13:30.971Z,93761.53
2023-05-12T00:15:59.374Z,93757.38
2023-05-12T00:18:28.385Z,93762.00
2023-05-12T00:20:55.730Z,93744.88
2023-05-12T00:23:22.845Z,93753.22
2023-05-12T00:25:50.375Z,93749.81
2023-05-12T00:28:18.699Z,93751.63
2023-05-12T00:30:45.567Z,93737.84
2023-05-12T00:33:12.412Z,93760.44
2023-05-12T00:35:39.133Z,93758.94
2023-05-12T00:38:05.812Z,93748.03
2023-05-12T00:40:32.577Z,93751.63
2023-05-12T00:42:59.300Z,93755.22
2023-05-12T00:45:26.580Z,93756.91
2023-05-12T00:47:53.829Z,93749.22
2023-05-12T00:50:21.503Z,93744.59
2023-05-12T00:52:49.628Z,93737.25
2023-05-12T00:55:16.477Z,93736.78
2023-05-12T00:57:43.558Z,93741.31
2023-05-12T01:00:10.938Z,93735.13
2023-05-12T01:02:37.913Z,93737.84
2023-05-12T01:05:05.792Z,93738.75
2023-05-12T01:07:33.237Z,93740.06
2023-05-12T01:10:00.110Z,93735.13
2023-05-12T01:12:27.285Z,93744.72
2023-05-12T01:14:55.958Z,93739.53
2023-05-12T01:17:28.895Z,93739.31
2023-05-12T01:20:00.718Z,93734.06
2023-05-12T01:22:31.364Z,93731.25
2023-05-12T01:25:00.219Z,93736.00
2023-05-12T01:27:27.695Z,93745.59
2023-05-12T01:29:56.568Z,93734.56
2023-05-12T01:32:23.670Z,93720.44
2023-05-12T01:34:50.813Z,93732.28
2023-05-12T01:37:17.560Z,93736.00
2023-05-12T01:39:44.549Z,93734.00
2023-05-12T01:42:11.327Z,93724.13
2023-05-12T01:44:38.124Z,93731.69
2023-05-12T01:47:05.237Z,93734.88
2023-05-12T01:49:31.946Z,93730.13
2023-05-12T01:51:58.665Z,93730.13
2023-05-12T01:54:25.348Z,93731.00
2023-05-12T01:56:52.114Z,93730.44
2023-05-12T01:59:18.798Z,93733.03
2023-05-12T02:01:45.558Z,93726.06
2023-05-12T02:04:12.426Z,93727.50
2023-05-12T02:06:39.281Z,93734.34
2023-05-12T02:09:06.123Z,93726.78
2023-05-12T02:11:32.819Z,93728.72
2023-05-12T02:13:59.624Z,93733.69
2023-05-12T02:16:26.325Z,93731.59
2023-05-12T02:18:53.089Z,93733.19
2023-05-12T02:21:19.912Z,93737.94
2023-05-12T02:23:46.631Z,93725.56
2023-05-12T02:26:13.365Z,93728.72
2023-05-12T02:28:40.109Z,93724.34
2023-05-12T02:31:06.854Z,93723.09
2023-05-12T02:33:33.656Z,93727.41
2023-05-12T02:36:00.438Z,93720.50
2023-05-12T02:38:27.613Z,93723.53
2023-05-12T02:40:54.556Z,93722.97
2023-05-12T02:43:21.285Z,93725.56
2023-05-12T02:45:48.012Z,93720.72
2023-05-12T02:48:14.746Z,93720.94
2023-05-12T02:50:41.875Z,93720.38
2023-05-12T02:53:08.744Z,93716.19
2023-05-12T02:55:35.472Z,93717.22
2023-05-12T02:58:02.285Z,93720.94
2023-05-12T03:00:28.999Z,93721.53
2023-05-12T03:02:55.816Z,93722.75
2023-05-12T03:05:22.807Z,93708.88
2023-05-12T03:07:49.906Z,93711.38
2023-05-12T03:10:19.877Z,93716.13
2023-05-12T03:12:46.923Z,93708.34
2023-05-12T03:15:13.657Z,93715.47
2023-05-12T03:17:40.592Z,93712.31
2023-05-12T03:20:07.902Z,93716.91
2023-05-12T03:22:35.100Z,93711.38
2023-05-12T03:25:01.950Z,93710.59
2023-05-12T03:27:28.745Z,93713.19
2023-05-12T03:29:55.643Z,93718.34
2023-05-12T03:32:22.424Z,93718.34
2023-05-12T03:34:49.214Z,93706.41
2023-05-12T03:37:16.428Z,93712.16
2023-05-12T03:39:43.282Z,93710.81
2023-05-12T03:42:09.980Z,93709.56
2023-05-12T03:44:36.776Z,93709.78
2023-05-12T03:47:03.676Z,93711.59
2023-05-12T03:49:30.492Z,93709.22
2023-05-12T03:51:57.236Z,93712.03
2023-05-12T03:54:24.190Z,93709.00
2023-05-12T03:56:53.026Z,93714.97
2023-05-12T03:59:19.752Z,93708.78
2023-05-12T04:01:46.560Z,93715.53
2023-05-12T04:04:13.316Z,93715.75
2023-05-12T04:06:40.098Z,93712.38
2023-05-12T04:09:06.864Z,93712.16
2023-05-12T04:11:33.588Z,93710.59
2023-05-12T04:14:00.312Z,93714.75
2023-05-12T04:16:27.046Z,93705.81
2023-05-12T04:18:53.920Z,93716.81
2023-05-12T04:21:21.084Z,93718.34
2023-05-12T04:23:47.817Z,93723.75
2023-05-12T04:26:14.438Z,93726.13
2023-05-12T04:28:41.255Z,93731.09
2023-05-12T04:31:07.869Z,93734.03
2023-05-12T04:33:34.566Z,93731.59
2023-05-12T04:36:01.540Z,93727.41
2023-05-12T04:38:28.306Z,93725.03
2023-05-12T04:41:00.021Z,93734.19
2023-05-12T04:45:59.314Z,93723.09
2023-05-12T04:48:26.881Z,93744.44
2023-05-12T04:50:54.737Z,93744.34
2023-05-12T04:53:21.351Z,93741.91
2023-05-12T04:55:50.175Z,93751.38
2023-05-12T04:58:17.072Z,93744.16
2023-05-12T05:00:44.087Z,93741.91
2023-05-12T05:03:11.192Z,93753.66
2023-05-12T05:05:37.973Z,93733.50
2023-05-12T05:08:04.727Z,93741.84
2023-05-12T05:10:31.493Z,93747.91
2023-05-12T05:12:58.066Z,93744.00
2023-05-12T05:15:24.990Z,93743.88
2023-05-12T05:17:51.762Z,93748.84
2023-05-12T05:20:19.715Z,93750.31
2023-05-12T05:22:46.525Z,93754.81
2023-05-12T05:25:14.254Z,93750.06
2023-05-12T05:27:41.108Z,93751.22
2023-05-12T05:30:09.167Z,93753.13
2023-05-12T05:32:37.199Z,93748.47
2023-05-12T05:35:04.065Z,93752.34
2023-05-12T05:37:30.842Z,93763.16
2023-05-12T05:39:57.826Z,93752.47
2023-05-12T05:42:24.641Z,93755.63
2023-05-12T05:44:51.443Z,93751.44
2023-05-12T05:47:18.182Z,93758.22
2023-05-12T05:49:44.870Z,93757.78
2023-05-12T05:52:11.496Z,93764.34
2023-05-12T05:54:38.212Z,93767.94
2023-05-12T05:57:05.224Z,93764.00
2023-05-12T05:59:32.325Z,93760.72
2023-05-12T06:01:59.279Z,93766.94
2023-05-12T06:04:26.239Z,93768.75
2023-05-12T06:06:53.001Z,93762.31
2023-05-12T06:09:19.779Z,93764.34
2023-05-12T06:11:46.431Z,93774.38
2023-05-12T06:14:13.189Z,93775.50
2023-05-12T06:16:39.904Z,93774.72
2023-05-12T06:19:06.912Z,93776.41
2023-05-12T06:21:33.749Z,93782.72
2023-05-12T06:24:00.541Z,93782.50
2023-05-12T06:26:27.197Z,93778.09
2023-05-12T06:28:53.913Z,93777.31
2023-05-12T06:31:20.659Z,93780.94
2023-05-12T06:33:47.627Z,93781.19
2023-05-12T06:36:14.300Z,93783.09
2023-05-12T06:38:41.021Z,93786.59
2023-05-12T06:41:07.882Z,93785.59
2023-05-12T06:43:34.626Z,93792.38
2023-05-12T06:46:02.063Z,93784.91
2023-05-12T06:48:28.908Z,93789.97
2023-05-12T06:50:55.669Z,93794.03
2023-05-12T06:53:24.076Z,93796.75
2023-05-12T06:55:53.774Z,93793.16
2023-05-12T06:58:22.252Z,93794.16
2023-05-12T07:00:49.007Z,93791.88
2023-05-12T07:03:16.129Z,93784.31
2023-05-12T07:05:43.017Z,93796.75
2023-05-12T07:08:09.911Z,93795.38
2023-05-12T07:10:38.094Z,93794.34
2023-05-12T07:13:04.904Z,93803.38
2023-05-12T07:15:32.867Z,93804.75
2023-05-12T07:17:59.985Z,93804.75
2023-05-12T07:20:27.209Z,93796.34
2023-05-12T07:22:54.944Z,93804.25
2023-05-12T07:25:22.150Z,93789.97
2023-05-12T07:27:50.051Z,93802.31
2023-05-12T07:30:17.245Z,93803.44
2023-05-12T07:32:44.103Z,93800.91
2023-05-12T07:35:10.940Z,93802.88
2023-05-12T07:37:38.346Z,93795.06
2023-05-12T07:40:05.635Z,93792.59
2023-05-12T07:42:32.350Z,93798.69
2023-05-12T07:44:59.069Z,93791.34
2023-05-12T07:47:26.104Z,93792.00
2023-05-12T07:49:52.784Z,93796.78
2023-05-12T07:52:21.918Z,93798.19
2023-05-12T07:54:48.753Z,93801.44
2023-05-12T07:57:15.609Z,93807.47
2023-05-12T07:59:42.980Z,93807.81
2023-05-12T08:02:09.902Z,93809.13
2023-05-12T08:04:36.702Z,93800.38
2023-05-12T08:07:03.613Z,93808.63
2023-05-12T08:09:30.340Z,93801.72
2023-05-12T08:11:57.127Z,93809.97
2023-05-12T08:14:25.746Z,93805.94
2023-05-12T08:16:52.730Z,93795.22
2023-05-12T08:19:19.561Z,93792.47
2023-05-12T08:21:46.576Z,93799.25
2023-05-12T08:24:13.393Z,93804.28
2023-05-12T08:26:40.459Z,93796.91
2023-05-12T08:29:08.856Z,93793.56
2023-05-12T08:31:35.670Z,93793.19
2023-05-12T08:34:10.209Z,93795.44
2023-05-12T08:36:38.755Z,93794.22
2023-05-12T08:39:06.067Z,93797.28
2023-05-12T08:41:38.857Z,93797.66
2023-05-12T08:44:06.556Z,93804.69
2023-05-12T08:46:33.812Z,93796.16
2023-05-12T08:49:04.405Z,93796.00
2023-05-12T08:51:32.972Z,93790.06
2023-05-12T08:53:59.656Z,93793.34
2023-05-12T08:58:57.005Z,93790.25
2023-05-12T09:01:25.041Z,93795.22
2023-05-12T09:03:53.152Z,93794.06
2023-05-12T09:06:20.291Z,93792.84
2023-05-12T09:08:47.151Z,93798.81
2023-05-12T09:11:14.133Z,93797.91
2023-05-12T09:14:06.514Z,93806.75
2023-05-12T09:16:40.270Z,93797.81
2023-05-12T09:19:07.424Z,93791.59
2023-05-12T09:21:34.448Z,93792.03
2023-05-12T09:24:09.265Z,93790.69
2023-05-12T09:26:52.977Z,93792.03
2023-05-12T09:29:30.718Z,93790.22
2023-05-12T09:32:00.010Z,93783.50
2023-05-12T09:34:31.928Z,93785.69
2023-05-12T09:37:04.094Z,93790.47
2023-05-12T09:39:30.835Z,93790.53
2023-05-12T09:41:57.577Z,93786.44
2023-05-12T09:44:25.230Z,93785.47
2023-05-12T09:46:52.885Z,93790.72
2023-05-12T09:49:21.178Z,93786.44
2023-05-12T09:51:53.000Z,93788.06
2023-05-12T09:54:26.819Z,93789.44
2023-05-12T09:56:58.496Z,93778.28
2023-05-12T09:59:31.958Z,93775.97
2023-05-12T10:02:00.987Z,93781.19
2023-05-12T10:04:29.261Z,93767.84
2023-05-12T10:06:56.494Z,93778.56
2023-05-12T10:09:25.816Z,93772.88
2023-05-12T10:11:53.945Z,93777.00
2023-05-12T10:14:22.668Z,93779.25
2023-05-12T10:16:50.086Z,93772.50
2023-05-12T10:19:17.784Z,93776.53
2023-05-12T10:21:47.320Z,93769.59
2023-05-12T10:24:17.327Z,93770.13
2023-05-12T10:26:44.862Z,93771.13
2023-05-12T10:29:12.642Z,93781.03
2023-05-12T10:31:39.746Z,93774.56
2023-05-12T10:34:06.973Z,93774.31
2023-05-12T10:36:48.040Z,93783.75
2023-05-12T10:39:17.647Z,93788.81
2023-05-12T10:41:44.548Z,93781.97
2023-05-12T10:44:11.395Z,93784.63
2023-05-12T10:46:38.210Z,93790.59
2023-05-12T10:49:10.232Z,93786.00
2023-05-12T10:52:00.022Z,93788.06
2023-05-12T10:54:26.863Z,93793.19
2023-05-12T10:56:58.695Z,93798.88
2023-05-12T10:59:29.563Z,93798.56
2023-05-12T11:02:03.948Z,93791.81
2023-05-12T11:04:59.100Z,93791.06
2023-05-12T11:07:28.693Z,93797.91
2023-05-12T11:10:01.664Z,93805.41
2023-05-12T11:12:32.886Z,93800.72
2023-05-12T11:15:01.646Z,93803.91
2023-05-12T11:17:28.635Z,93798.66
2023-05-12T11:19:55.849Z,93800.41
2023-05-12T11:22:23.456Z,93807.47
2023-05-12T11:24:51.291Z,93806.22
2023-05-12T11:27:19.576Z,93802.44
2023-05-12T11:29:59.016Z,93802.00
2023-05-12T11:32:26.147Z,93807.16
2023-05-12T11:34:53.249Z,93797.53
2023-05-12T11:37:21.474Z,93799.09
2023-05-12T11:39:48.480Z,93801.53
2023-05-12T11:42:17.702Z,93797.91
2023-05-12T11:44:50.421Z,93808.13
2023-05-12T11:47:19.227Z,93809.34
2023-05-12T11:49:49.975Z,93806.50
2023-05-12T11:52:17.609Z,93802.09
2023-05-12T11:54:57.854Z,93804.16
2023-05-12T11:57:28.957Z,93803.91
2023-05-12T12:00:07.761Z,93800.06
2023-05-12T12:02:36.057Z,93800.13
2023-05-12T12:05:03.430Z,93801.75
2023-05-12T12:07:31.885Z,93794.66
2023-05-12T12:09:59.191Z,93790.19
2023-05-12T12:12:25.949Z,93794.38
2023-05-12T12:14:52.663Z,93791.22
2023-05-12T12:17:22.175Z,93792.06
2023-05-12T12:19:48.902Z,93794.66
2023-05-12T12:22:15.792Z,93787.31
2023-05-12T12:24:42.512Z,93796.75
2023-05-12T12:27:09.558Z,93796.50
2023-05-12T12:29:36.377Z,93798.06
2023-05-12T12:32:03.436Z,93797.03
2023-05-12T12:34:30.222Z,93787.81
2023-05-12T12:36:56.942Z,93798.56
2023-05-12T12:39:23.746Z,93799.59
2023-05-12T12:41:50.444Z,93803.53
2023-05-12T12:44:17.821Z,93797.53
2023-05-12T12:46:44.652Z,93799.13
2023-05-12T12:49:11.544Z,93796.75
2023-05-12T12:51:45.664Z,93797.28
2023-05-12T12:54:13.953Z,93801.22
2023-05-12T12:56:40.962Z,93804.09
2023-05-12T12:59:07.712Z,93797.53
2023-05-12T13:01:35.038Z,93792.56
2023-05-12T13:04:02.011Z,93803.03
2023-05-12T13:06:29.442Z,93799.63
2023-05-12T13:08:56.682Z,93806.44
2023-05-12T13:11:23.530Z,93803.31
2023-05-12T13:13:50.403Z,93804.63
2023-05-12T13:16:17.218Z,93800.69
2023-05-12T13:18:44.186Z,93803.31
2023-05-12T13:21:10.951Z,93795.72
2023-05-12T13:23:37.652Z,93793.34
2023-05-12T13:26:04.766Z,93788.34
2023-05-12T13:28:31.589Z,93788.63
2023-05-12T13:30:58.342Z,93792.84
2023-05-12T13:33:25.233Z,93785.22
2023-05-12T13:35:51.901Z,93782.53
2023-05-12T13:38:20.010Z,93805.66
2023-05-12T13:40:46.887Z,93788.03
2023-05-12T13:43:13.715Z,93792.63
2023-05-12T13:45:40.408Z,93787.97
2023-05-12T13:48:07.250Z,93794.56
2023-05-12T13:50:34.489Z,93793.06
2023-05-12T13:53:01.366Z,93784.91
2023-05-12T13:55:28.028Z,93788.59
2023-05-12T13:57:54.824Z,93782.84
2023-05-12T14:00:22.141Z,93787.56
2023-05-12T14:02:49.073Z,93780.91
2023-05-12T14:05:16.058Z,93789.56
2023-05-12T14:07:42.864Z,93784.41
2023-05-12T14:10:10.498Z,93792.75
2023-05-12T14:12:37.221Z,93791.13
2023-05-12T14:15:19.803Z,93792.69
2023-05-12T14:17:51.257Z,93779.25
2023-05-12T14:20:18.078Z,93797.22
2023-05-12T14:22:44.780Z,93800.06
2023-05-12T14:25:11.514Z,93800.09
2023-05-12T14:27:38.306Z,93794.81
2023-05-12T14:30:06.301Z,93798.50
2023-05-12T14:32:34.430Z,93794.06
2023-05-12T14:35:01.198Z,93795.94
2023-05-12T14:37:27.947Z,93796.91
2023-05-12T14:39:56.781Z,93799.13
2023-05-12T14:42:23.833Z,93802.63
2023-05-12T14:44:50.655Z,93785.41
2023-05-12T14:47:17.407Z,93808.44
2023-05-12T14:49:45.674Z,93807.47
2023-05-12T14:52:12.667Z,93808.25
2023-05-12T14:54:39.351Z,93807.25
2023-05-12T14:57:06.248Z,93814.84
2023-05-12T14:59:32.963Z,93827.94
2023-05-12T15:01:59.867Z,93817.47
2023-05-12T15:04:27.668Z,93816.69
2023-05-12T15:06:54.375Z,93806.44
2023-05-12T15:09:21.079Z,93809.34
2023-05-12T15:11:49.402Z,93815.09
2023-05-12T15:14:16.114Z,93816.41
2023-05-12T15:16:42.927Z,93821.13
2023-05-12T15:19:09.768Z,93821.91
2023-05-12T15:21:36.870Z,93818.78
2023-05-12T15:24:04.016Z,93815.34
2023-05-12T15:26:34.313Z,93815.91
2023-05-12T15:29:02.479Z,93824.81
2023-05-12T15:31:30.070Z,93824.03
2023-05-12T15:33:57.654Z,93818.88
2023-05-12T15:36:24.452Z,93819.50
2023-05-12T15:38:51.201Z,93827.28
2023-05-12T15:41:17.934Z,93831.16
2023-05-12T15:43:44.822Z,93815.97
2023-05-12T15:46:11.945Z,93830.16
2023-05-12T15:48:39.666Z,93830.88
2023-05-12T15:51:06.947Z,93832.44
2023-05-12T15:53:34.051Z,93829.09
2023-05-12T15:56:02.060Z,93827.25
2023-05-12T15:58:29.290Z,93834.06
2023-05-12T16:00:56.306Z,93846.31
2023-05-12T16:03:23.891Z,93842.63
2023-05-12T16:05:50.938Z,93840.69
2023-05-12T16:08:17.995Z,93841.81
2023-05-12T16:10:44.899Z,93840.91
2023-05-12T16:13:11.647Z,93844.03
2023-05-12T16:15:38.394Z,93848.34
2023-05-12T16:18:07.525Z,93850.19
2023-05-12T16:20:36.083Z,93846.41
2023-05-12T16:23:02.913Z,93856.09
2023-05-12T16:25:29.658Z,93857.50
2023-05-12T16:27:56.330Z,93860.66
2023-05-12T16:30:23.179Z,93865.28
2023-05-12T16:32:49.946Z,93865.09
2023-05-12T16:35:16.719Z,93861.31
2023-05-12T16:37:43.524Z,93869.16
2023-05-12T16:40:10.569Z,93878.41
2023-05-12T16:42:37.295Z,93876.53
2023-05-12T16:45:04.194Z,93874.41
2023-05-12T16:47:31.570Z,93866.88
2023-05-12T16:49:59.314Z,93862.38
2023-05-12T16:52:27.053Z,93867.06
2023-05-12T16:54:56.139Z,93865.63
2023-05-12T16:57:23.371Z,93867.53
2023-05-12T16:59:50.317Z,93867.94
2023-05-12T17:02:17.031Z,93875.69
2023-05-12T17:04:44.814Z,93874.50
2023-05-12T17:07:11.546Z,93871.63
2023-05-12T17:09:38.430Z,93878.25
2023-05-12T17:12:06.925Z,93878.13
2023-05-12T17:14:35.101Z,93881.31
2023-05-12T17:17:02.433Z,93885.06
2023-05-12T17:19:29.541Z,93881.31
2023-05-12T17:21:56.365Z,93886.19
2023-05-12T17:24:23.165Z,93892.38
2023-05-12T17:26:49.975Z,93884.00
2023-05-12T17:29:17.088Z,93887.00
2023-05-12T17:31:43.978Z,93891.19
2023-05-12T17:34:10.846Z,93897.13
2023-05-12T17:36:37.577Z,93893.69
2023-05-12T17:39:04.348Z,93897.13
2023-05-12T17:41:31.058Z,93903.94
2023-05-12T17:43:57.845Z,93906.28
2023-05-12T17:46:24.646Z,93911.41
2023-05-12T17:48:51.429Z,93913.50
2023-05-12T17:51:18.184Z,93909.66
2023-05-12T17:53:44.845Z,93914.41
2023-05-12T17:56:11.676Z,93919.59
2023-05-12T17:58:38.635Z,93910.63
2023-05-12T18:01:05.556Z,93931.41
2023-05-12T18:03:32.487Z,93933.38
2023-05-12T18:05:59.532Z,93930.06
2023-05-12T18:08:27.313Z,93928.47
2023-05-12T18:10:54.146Z,93934.25
2023-05-12T18:13:20.809Z,93924.06
2023-05-12T18:15:49.392Z,93923.59
2023-05-12T18:18:16.116Z,93928.88
2023-05-12T18:20:42.850Z,93927.69
2023-05-12T18:23:09.534Z,93925.16
2023-05-12T18:25:36.364Z,93928.88
2023-05-12T18:28:03.129Z,93932.19
2023-05-12T18:30:29.904Z,93938.13
2023-05-12T18:32:56.672Z,93934.28
2023-05-12T18:35:23.878Z,93932.72
2023-05-12T18:37:50.736Z,93938.41
2023-05-12T18:40:17.567Z,93949.53
2023-05-12T18:42:44.261Z,93943.78
2023-05-12T18:45:11.466Z,93950.66
2023-05-12T18:47:38.875Z,93945.75
2023-05-12T18:50:05.982Z,93946.78
2023-05-12T18:52:32.697Z,93952.31
2023-05-12T18:54:59.828Z,93952.53
2023-05-12T18:57:26.848Z,93960.75
2023-05-12T18:59:53.715Z,93962.25
2023-05-12T19:02:20.863Z,93960.06
2023-05-12T19:04:47.954Z,93962.78
2023-05-12T19:07:15.803Z,93960.53
2023-05-12T19:09:43.493Z,93960.97
2023-05-12T19:12:11.790Z,93951.16
2023-05-12T19:14:43.279Z,93952.44
2023-05-12T19:17:10.381Z,93967.41
2023-05-12T19:19:37.179Z,93968.19
2023-05-12T19:22:04.510Z,93969.31
2023-05-12T19:24:31.446Z,93959.81
2023-05-12T19:26:58.387Z,93976.69
2023-05-12T19:29:25.416Z,93980.09
2023-05-12T19:31:53.127Z,93979.88
2023-05-12T19:34:20.265Z,93984.91
2023-05-12T19:36:47.111Z,93984.09
2023-05-12T19:39:13.918Z,93988.66
2023-05-12T19:41:41.208Z,93982.28
2023-05-12T19:44:07.972Z,93988.19
2023-05-12T19:46:34.681Z,93979.94
2023-05-12T19:49:01.460Z,93998.16
2023-05-12T19:51:28.615Z,94002.50
2023-05-12T19:53:55.346Z,93993.34
2023-05-12T19:56:21.977Z,93997.19
2023-05-12T19:58:48.682Z,94008.97
2023-05-12T20:01:15.487Z,94013.38
2023-05-12T20:03:42.234Z,94010.66
2023-05-12T20:06:08.940Z,94011.09
2023-05-12T20:08:35.700Z,94015.28
2023-05-12T20:11:02.490Z,94025.56
2023-05-12T20:13:29.164Z,94019.13
2023-05-12T20:15:56.098Z,94014.16
2023-05-12T20:18:23.824Z,94019.00
2023-05-12T20:20:51.032Z,94016.53
2023-05-12T20:23:17.669Z,93995.50
2023-05-12T20:25:44.346Z,94023.19
2023-05-12T20:28:11.768Z,94022.41
2023-05-12T20:30:38.738Z,94020.59
2023-05-12T20:33:05.630Z,94020.25
2023-05-12T20:35:32.541Z,94018.44
2023-05-12T20:37:59.435Z,94020.25
2023-05-12T20:40:26.191Z,94025.19
2023-05-12T20:42:53.011Z,94020.22
2023-05-12T20:45:20.199Z,94010.97
2023-05-12T20:47:47.225Z,94020.91
2023-05-12T20:50:13.996Z,94017.38
2023-05-12T20:52:41.523Z,94022.78
2023-05-12T20:55:09.350Z,94026.19
2023-05-12T20:57:36.186Z,94023.22
2023-05-12T21:00:04.005Z,94007.94
2023-05-12T21:02:30.741Z,94016.44
2023-05-12T21:04:57.624Z,94027.19
2023-05-12T21:07:24.263Z,94024.38
2023-05-12T21:09:50.910Z,94007.84
2023-05-12T21:12:17.654Z,94019.69
2023-05-12T21:14:45.578Z,94029.94
2023-05-12T21:17:12.387Z,94032.53
2023-05-12T21:19:40.010Z,94034.19
2023-05-12T21:22:07.832Z,94034.41
2023-05-12T21:24:36.532Z,94034.56
2023-05-12T21:27:04.132Z,94031.75
2023-05-12T21:29:32.003Z,94031.03
2023-05-12T21:31:58.915Z,94027.63
2023-05-12T21:34:25.962Z,94035.22
2023-05-12T21:36:52.556Z,94028.69
2023-05-12T21:39:19.155Z,94028.53
2023-05-12T21:41:46.067Z,94025.06
2023-05-12T21:44:12.843Z,94021.13
2023-05-12T21:46:39.815Z,94031.72
2023-05-12T21:49:06.607Z,94031.72
2023-05-12T21:51:33.633Z,94033.00
2023-05-12T21:54:00.775Z,94034.81
2023-05-12T21:56:27.382Z,94029.06
2023-05-12T21:58:54.212Z,94031.53
2023-05-12T22:01:20.935Z,94015.16
2023-05-12T22:03:47.547Z,94039.16
2023-05-12T22:06:14.222Z,94034.91
2023-05-12T22:08:40.833Z,94034.19
2023-05-12T22:11:07.497Z,94034.97
2023-05-12T22:13:34.171Z,94038.34
2023-05-12T22:16:00.837Z,94033.81
2023-05-12T22:18:27.611Z,94030.00
2023-05-12T22:20:54.320Z,94030.00
2023-05-12T22:23:21.390Z,94024.88
2023-05-12T22:25:47.965Z,94029.72
2023-05-12T22:28:14.567Z,94033.75
2023-05-12T22:30:41.990Z,94030.16
2023-05-12T22:33:08.852Z,94033.66
2023-05-12T22:35:35.597Z,94027.16
2023-05-12T22:38:02.238Z,94035.53
2023-05-12T22:40:29.217Z,94039.50
2023-05-12T22:42:55.829Z,94023.44
2023-05-12T22:45:22.399Z,94037.72
2023-05-12T22:47:49.090Z,94031.72
2023-05-12T22:50:16.109Z,94039.63
2023-05-12T22:52:42.740Z,94041.22
2023-05-12T22:55:09.881Z,94036.78
2023-05-12T22:57:38.638Z,94029.56
2023-05-12T23:00:07.066Z,94023.97
2023-05-12T23:02:33.857Z,94023.75
2023-05-12T23:05:00.598Z,94023.50
2023-05-12T23:07:27.402Z,94022.94
2023-05-12T23:09:54.979Z,94025.66
2023-05-12T23:12:21.692Z,94003.78
2023-05-12T23:14:48.479Z,94023.16
2023-05-12T23:17:15.252Z,94023.16
2023-05-12T23:19:41.992Z,94023.06
2023-05-12T23:22:08.710Z,94027.91
2023-05-12T23:24:36.220Z,94029.16
2023-05-12T23:27:02.904Z,94025.59
2023-05-12T23:29:29.824Z,94027.78
2023-05-12T23:31:58.873Z,94026.53
2023-05-12T23:34:25.893Z,94030.56
2023-05-12T23:36:52.553Z,94034.53
2023-05-12T23:39:19.280Z,94030.72
2023-05-12T23:41:46.043Z,94022.72
2023-05-12T23:44:13.071Z,94017.88
2023-05-12T23:46:39.944Z,94014.06
2023-05-12T23:49:06.694Z,94015.66
2023-05-12T23:51:34.428Z,94014.28
2023-05-12T23:54:01.298Z,94017.03
2023-05-12T23:56:28.144Z,94014.63
2023-05-12T23:58:54.880Z,94010.81
